createdAt,value
2022-09-03T00:03:09.834Z,99924.59
2022-09-03T00:06:21.838Z,99921.41
2022-09-03T00:09:29.992Z,99925.94
2022-09-03T00:12:39.676Z,99917.03
2022-09-03T00:15:42.049Z,99921.41
2022-09-03T00:18:48.804Z,99910.78
2022-09-03T00:22:19.322Z,99913.66
2022-09-03T00:25:27.740Z,99918.53
2022-09-03T00:28:41.896Z,99912.31
2022-09-03T00:31:47.841Z,99918.53
2022-09-03T00:34:57.208Z,99916.88
2022-09-03T00:38:00.096Z,99909.31
2022-09-03T00:41:01.919Z,99910.16
2022-09-03T00:44:12.916Z,99916.38
2022-09-03T00:47:48.672Z,99914.69
2022-09-03T00:51:00.393Z,99911.69
2022-09-03T00:54:33.255Z,99916.06
2022-09-03T00:58:08.744Z,99925.47
2022-09-03T01:01:22.060Z,99919.75
2022-09-03T01:04:54.372Z,99925.81
2022-09-03T01:08:26.537Z,99929.16
2022-09-03T01:11:47.518Z,99937.91
2022-09-03T01:15:10.838Z,99929.50
2022-09-03T01:18:21.700Z,99938.41
2022-09-03T01:21:39.035Z,99935.91
2022-09-03T01:25:12.033Z,99933.53
2022-09-03T01:28:33.548Z,99927.31
2022-09-03T01:31:57.696Z,99935.22
2022-09-03T01:35:19.893Z,99935.56
2022-09-03T01:38:32.096Z,99932.19
2022-09-03T01:42:20.513Z,99937.41
2022-09-03T01:45:40.376Z,99940.28
2022-09-03T01:49:16.162Z,99937.59
2022-09-03T01:52:38.451Z,99933.53
2022-09-03T01:56:17.516Z,99940.28
2022-09-03T01:59:27.880Z,99927.66
2022-09-03T02:02:30.946Z,99932.19
2022-09-03T02:05:35.810Z,99948.00
2022-09-03T02:08:38.228Z,99950.19
2022-09-03T02:11:41.327Z,99943.28
2022-09-03T02:14:43.929Z,99951.53
2022-09-03T02:17:49.883Z,99943.63
2022-09-03T02:20:54.805Z,99948.69
2022-09-03T02:23:56.786Z,99944.50
2022-09-03T02:26:58.997Z,99952.06
2022-09-03T02:30:01.015Z,99940.63
2022-09-03T02:33:03.922Z,99948.19
2022-09-03T02:36:09.319Z,99951.06
2022-09-03T02:39:11.905Z,99949.50
2022-09-03T02:42:15.719Z,99946.31
2022-09-03T02:45:47.570Z,99943.28
2022-09-03T02:48:50.568Z,99944.97
2022-09-03T02:51:52.623Z,99949.69
2022-09-03T02:54:54.511Z,99946.66
2022-09-03T02:57:57.752Z,99956.75
2022-09-03T03:00:59.988Z,99953.53
2022-09-03T03:04:02.170Z,99962.78
2022-09-03T03:07:05.084Z,99963.13
2022-09-03T03:10:07.537Z,99965.13
2022-09-03T03:13:09.569Z,99962.09
2022-09-03T03:16:11.918Z,99969.00
2022-09-03T03:19:13.806Z,99969.50
2022-09-03T03:22:15.722Z,99970.88
2022-09-03T03:25:17.858Z,99985.50
2022-09-03T03:28:20.750Z,99989.38
2022-09-03T03:31:23.404Z,99992.06
2022-09-03T03:34:25.496Z,99992.28
2022-09-03T03:37:27.384Z,99994.63
2022-09-03T03:40:29.381Z,99992.94
2022-09-03T03:43:31.295Z,99990.59
2022-09-03T03:46:37.730Z,99991.44
2022-09-03T03:49:39.707Z,99992.44
2022-09-03T03:52:41.879Z,99993.78
2022-09-03T03:55:43.932Z,99998.31
2022-09-03T03:58:45.860Z,100007.91
2022-09-03T04:01:49.092Z,100012.09
2022-09-03T04:04:51.108Z,100010.88
2022-09-03T04:07:53.029Z,100009.34
2022-09-03T04:10:55.011Z,100013.03
2022-09-03T04:13:56.991Z,100010.16
2022-09-03T04:16:59.075Z,100009.94
2022-09-03T04:20:01.118Z,100014.59
2022-09-03T04:23:03.308Z,100013.91
2022-09-03T04:26:06.293Z,100012.00
2022-09-03T04:29:10.306Z,100008.94
2022-09-03T04:32:31.051Z,100021.56
2022-09-03T04:35:35.884Z,100017.25
2022-09-03T04:38:42.053Z,100017.88
2022-09-03T04:41:44.600Z,100010.56
2022-09-03T04:44:46.489Z,100016.06
2022-09-03T04:48:02.257Z,100013.59
2022-09-03T04:51:07.316Z,100010.66
2022-09-03T04:54:10.405Z,100010.78
2022-09-03T04:57:12.387Z,100014.13
2022-09-03T05:00:18.274Z,100013.59
2022-09-03T05:03:22.304Z,100006.44
2022-09-03T05:06:25.883Z,100016.53
2022-09-03T05:09:27.794Z,100012.72
2022-09-03T05:12:31.819Z,100009.75
2022-09-03T05:15:33.729Z,100018.78
2022-09-03T05:18:36.585Z,100014.88
2022-09-03T05:21:38.702Z,100003.22
2022-09-03T05:24:40.595Z,100004.72
2022-09-03T05:27:42.668Z,100000.31
2022-09-03T05:30:44.623Z,100003.09
2022-09-03T05:33:59.748Z,100017.63
2022-09-03T05:37:01.817Z,100023.31
2022-09-03T05:40:04.785Z,100028.06
2022-09-03T05:43:08.593Z,100026.66
2022-09-03T05:46:18.701Z,100030.56
2022-09-03T05:49:20.573Z,100024.16
2022-09-03T05:52:23.612Z,100027.00
2022-09-03T05:55:25.504Z,100031.06
2022-09-03T05:58:42.452Z,100041.59
2022-09-03T06:01:51.102Z,100034.03
2022-09-03T06:04:56.278Z,100035.44
2022-09-03T06:07:58.199Z,100041.38
2022-09-03T06:11:01.957Z,100042.69
2022-09-03T06:14:06.445Z,100042.50
2022-09-03T06:17:11.389Z,100044.63
2022-09-03T06:20:13.352Z,100028.69
2022-09-03T06:23:15.325Z,100025.78
2022-09-03T06:26:17.845Z,100024.66
2022-09-03T06:29:20.361Z,100024.69
2022-09-03T06:32:22.294Z,100030.53
2022-09-03T06:35:24.233Z,100015.97
2022-09-03T06:38:29.831Z,100022.78
2022-09-03T06:41:35.634Z,100025.38
2022-09-03T06:44:37.661Z,100032.09
2022-09-03T06:47:39.606Z,100029.09
2022-09-03T06:50:41.525Z,100022.47
2022-09-03T06:53:46.493Z,100025.88
2022-09-03T06:56:48.480Z,100021.34
2022-09-03T06:59:50.670Z,100009.28
2022-09-03T07:02:59.144Z,100000.66
2022-09-03T07:06:13.434Z,99993.03
2022-09-03T07:09:18.272Z,99984.78
2022-09-03T07:12:20.441Z,99983.88
2022-09-03T07:15:22.393Z,99979.66
2022-09-03T07:18:24.449Z,99985.56
2022-09-03T07:21:28.646Z,99982.75
2022-09-03T07:24:30.668Z,99990.03
2022-09-03T07:27:34.677Z,99984.47
2022-09-03T07:30:36.787Z,99979.41
2022-09-03T07:33:39.944Z,99975.50
2022-09-03T07:36:51.419Z,99971.66
2022-09-03T07:39:54.167Z,99980.78
2022-09-03T07:43:03.568Z,99973.44
2022-09-03T07:46:07.137Z,99986.19
2022-09-03T07:49:09.617Z,99979.75
2022-09-03T07:52:11.887Z,99982.47
2022-09-03T07:55:16.052Z,99974.63
2022-09-03T07:58:18.143Z,99976.13
2022-09-03T08:01:22.613Z,99978.13
2022-09-03T08:04:24.569Z,99963.94
2022-09-03T08:07:26.625Z,99959.41
2022-09-03T08:10:31.240Z,99945.50
2022-09-03T08:13:34.089Z,99948.47
2022-09-03T08:16:39.739Z,99949.28
2022-09-03T08:19:43.836Z,99936.63
2022-09-03T08:22:46.360Z,99940.78
2022-09-03T08:25:48.555Z,99926.97
2022-09-03T08:28:53.003Z,99934.19
2022-09-03T08:31:55.067Z,99931.75
2022-09-03T08:34:57.109Z,99932.75
2022-09-03T08:38:01.853Z,99923.97
2022-09-03T08:41:12.926Z,99925.28
2022-09-03T08:44:49.171Z,99926.84
2022-09-03T08:48:07.522Z,99922.75
2022-09-03T08:51:12.474Z,99911.16
2022-09-03T08:54:16.192Z,99913.53
2022-09-03T08:57:21.134Z,99913.41
2022-09-03T09:00:23.315Z,99920.53
2022-09-03T09:03:48.104Z,99911.38
2022-09-03T09:07:28.186Z,99906.34
2022-09-03T09:10:47.021Z,99891.72
2022-09-03T09:14:11.767Z,99896.06
2022-09-03T09:17:19.572Z,99894.78
2022-09-03T09:20:48.369Z,99889.56
2022-09-03T09:23:51.563Z,99893.19
2022-09-03T09:26:59.668Z,99886.19
2022-09-03T09:30:05.302Z,99883.44
2022-09-03T09:33:08.129Z,99879.25
2022-09-03T09:36:15.617Z,99886.41
2022-09-03T09:39:17.807Z,99880.03
2022-09-03T09:42:21.649Z,99883.88
2022-09-03T09:45:23.752Z,99888.78
2022-09-03T09:48:34.550Z,99877.50
2022-09-03T09:51:36.533Z,99878.75
2022-09-03T09:54:40.508Z,99882.50
2022-09-03T09:57:42.560Z,99878.78
2022-09-03T10:01:00.229Z,99869.09
2022-09-03T10:04:24.752Z,99871.94
2022-09-03T10:07:34.913Z,99871.88
2022-09-03T10:10:44.766Z,99877.56
2022-09-03T10:13:48.731Z,99879.09
2022-09-03T10:17:01.830Z,99881.97
2022-09-03T10:20:37.389Z,99869.59
2022-09-03T10:24:15.962Z,99880.78
2022-09-03T10:27:19.989Z,99872.22
2022-09-03T10:30:23.043Z,99872.34
2022-09-03T10:33:34.983Z,99865.19
2022-09-03T10:36:49.067Z,99863.97
2022-09-03T10:40:28.924Z,99852.31
2022-09-03T10:43:45.974Z,99852.22
2022-09-03T10:47:03.771Z,99852.81
2022-09-03T10:50:13.244Z,99849.38
2022-09-03T10:53:33.812Z,99846.75
2022-09-03T10:56:54.957Z,99844.50
2022-09-03T11:00:09.892Z,99837.13
2022-09-03T11:03:12.780Z,99824.50
2022-09-03T11:06:26.313Z,99820.81
2022-09-03T11:10:06.572Z,99824.97
2022-09-03T11:13:20.390Z,99818.19
2022-09-03T11:16:29.106Z,99822.13
2022-09-03T11:19:57.660Z,99815.47
2022-09-03T11:23:03.295Z,99810.00
2022-09-03T11:26:13.751Z,99806.66
2022-09-03T11:29:48.913Z,99798.47
2022-09-03T11:33:00.548Z,99802.13
2022-09-03T11:36:06.644Z,99790.91
2022-09-03T11:39:35.236Z,99792.44
2022-09-03T11:42:41.330Z,99792.50
2022-09-03T11:45:43.514Z,99778.91
2022-09-03T11:48:47.771Z,99778.56
2022-09-03T11:52:01.100Z,99781.03
2022-09-03T11:55:03.909Z,99787.34
2022-09-03T11:58:39.517Z,99784.13
2022-09-03T12:01:53.256Z,99786.81
2022-09-03T12:05:02.545Z,99776.47
2022-09-03T12:08:08.784Z,99779.09
2022-09-03T12:11:30.555Z,99764.34
2022-09-03T12:15:09.264Z,99759.09
2022-09-03T12:18:22.753Z,99762.78
2022-09-03T12:21:26.166Z,99756.84
2022-09-03T12:24:35.827Z,99762.06
2022-09-03T12:27:44.224Z,99755.31
2022-09-03T12:30:47.108Z,99757.31
2022-09-03T12:33:57.839Z,99762.31
2022-09-03T12:36:59.925Z,99755.38
2022-09-03T12:40:07.492Z,99745.47
2022-09-03T12:46:38.210Z,99729.06
2022-09-03T12:49:42.821Z,99736.19
2022-09-03T12:52:56.627Z,99736.56
2022-09-03T12:56:02.833Z,99737.66
2022-09-03T12:59:12.369Z,99727.06
2022-09-03T13:02:24.710Z,99733.50
2022-09-03T13:05:42.385Z,99714.25
2022-09-03T13:08:55.396Z,99719.59
2022-09-03T13:11:59.295Z,99714.16
2022-09-03T13:15:09.219Z,99709.53
2022-09-03T13:18:26.476Z,99704.28
2022-09-03T13:21:28.465Z,99711.03
2022-09-03T13:24:59.487Z,99717.41
2022-09-03T13:28:36.137Z,99721.56
2022-09-03T13:31:47.742Z,99720.63
2022-09-03T13:34:58.497Z,99719.81
2022-09-03T13:38:42.826Z,99713.75
2022-09-03T13:42:13.451Z,99719.69
2022-09-03T13:45:31.202Z,99708.63
2022-09-03T13:49:00.397Z,99705.28
2022-09-03T13:52:07.770Z,99704.94
2022-09-03T13:55:19.890Z,99704.47
2022-09-03T13:58:54.677Z,99705.41
2022-09-03T14:02:05.796Z,99699.13
2022-09-03T14:05:32.400Z,99697.97
2022-09-03T14:09:04.442Z,99698.94
2022-09-03T14:12:25.533Z,99705.81
2022-09-03T14:15:45.733Z,99696.44
2022-09-03T14:19:07.321Z,99703.66
2022-09-03T14:22:34.829Z,99714.41
2022-09-03T14:25:36.878Z,99713.25
2022-09-03T14:28:44.092Z,99714.72
2022-09-03T14:32:13.677Z,99703.63
2022-09-03T14:35:30.985Z,99718.94
2022-09-03T14:38:53.752Z,99706.28
2022-09-03T14:41:55.588Z,99700.72
2022-09-03T14:45:16.661Z,99704.00
2022-09-03T14:48:33.700Z,99708.81
2022-09-03T14:51:35.614Z,99711.97
2022-09-03T14:55:08.288Z,99719.34
2022-09-03T14:58:24.661Z,99717.47
2022-09-03T15:01:37.609Z,99712.06
2022-09-03T15:04:56.081Z,99722.13
2022-09-03T15:08:17.196Z,99721.13
2022-09-03T15:11:30.352Z,99721.56
2022-09-03T15:14:55.616Z,99713.00
2022-09-03T15:18:03.903Z,99724.91
2022-09-03T15:21:48.409Z,99729.53
2022-09-03T15:25:08.888Z,99727.66
2022-09-03T15:28:16.270Z,99728.50
2022-09-03T15:31:45.944Z,99728.69
2022-09-03T15:35:09.661Z,99734.34
2022-09-03T15:38:35.894Z,99729.53
2022-09-03T15:41:40.938Z,99738.09
2022-09-03T15:44:50.274Z,99735.78
2022-09-03T15:48:01.703Z,99735.34
2022-09-03T15:51:13.051Z,99727.41
2022-09-03T15:54:43.181Z,99728.03
2022-09-03T15:58:21.157Z,99730.75
2022-09-03T16:01:34.275Z,99723.44
2022-09-03T16:05:07.180Z,99721.34
2022-09-03T16:08:34.148Z,99722.56
2022-09-03T16:11:39.080Z,99723.19
2022-09-03T16:14:47.135Z,99720.47
2022-09-03T16:18:06.743Z,99724.63
2022-09-03T16:21:39.403Z,99717.09
2022-09-03T16:24:47.642Z,99708.91
2022-09-03T16:28:01.648Z,99706.41
2022-09-03T16:31:24.247Z,99705.31
2022-09-03T16:34:51.179Z,99702.41
2022-09-03T16:38:02.718Z,99702.16
2022-09-03T16:41:13.012Z,99707.75
2022-09-03T16:44:14.986Z,99699.19
2022-09-03T16:47:44.918Z,99704.56
2022-09-03T16:50:58.222Z,99710.81
2022-09-03T16:54:12.669Z,99704.94
2022-09-03T16:57:24.597Z,99708.09
2022-09-03T17:00:47.595Z,99714.75
2022-09-03T17:04:22.709Z,99718.06
2022-09-03T17:07:54.850Z,99715.34
2022-09-03T17:11:00.660Z,99726.53
2022-09-03T17:14:17.904Z,99719.28
2022-09-03T17:17:25.796Z,99716.59
2022-09-03T17:20:40.853Z,99719.28
2022-09-03T17:24:10.952Z,99713.25
2022-09-03T17:27:21.054Z,99715.94
2022-09-03T17:30:35.783Z,99712.56
2022-09-03T17:34:15.735Z,99707.97
2022-09-03T17:37:31.850Z,99700.66
2022-09-03T17:41:13.977Z,99698.34
2022-09-03T17:44:24.367Z,99693.97
2022-09-03T17:47:56.367Z,99698.16
2022-09-03T17:51:14.841Z,99696.28
2022-09-03T17:54:24.570Z,99700.84
2022-09-03T17:57:41.743Z,99701.06
2022-09-03T18:01:11.051Z,99701.69
2022-09-03T18:04:39.018Z,99698.34
2022-09-03T18:08:16.829Z,99695.00
2022-09-03T18:11:30.799Z,99687.06
2022-09-03T18:14:53.479Z,99696.44
2022-09-03T18:18:12.748Z,99692.69
2022-09-03T18:21:44.587Z,99690.00
2022-09-03T18:25:17.918Z,99691.03
2022-09-03T18:28:48.206Z,99694.53
2022-09-03T18:32:09.127Z,99687.19
2022-09-03T18:35:30.641Z,99689.91
2022-09-03T18:38:56.814Z,99685.91
2022-09-03T18:43:25.316Z,99682.69
2022-09-03T18:48:01.888Z,99686.78
2022-09-03T18:51:19.552Z,99682.16
2022-09-03T18:55:08.818Z,99692.13
2022-09-03T18:58:49.150Z,99690.22
2022-09-03T19:02:12.460Z,99686.22
2022-09-03T19:05:46.797Z,99679.53
2022-09-03T19:09:24.757Z,99690.75
2022-09-03T19:13:15.582Z,99698.41
2022-09-03T19:16:48.889Z,99705.69
2022-09-03T19:20:42.894Z,99705.63
2022-09-03T19:24:04.008Z,99708.00
2022-09-03T19:31:37.770Z,99712.84
2022-09-03T19:35:22.794Z,99714.81
2022-09-03T19:39:07.017Z,99716.13
2022-09-03T19:42:53.019Z,99707.31
2022-09-03T19:46:53.899Z,99714.91
2022-09-03T19:50:56.665Z,99723.91
2022-09-03T19:54:21.214Z,99715.34
2022-09-03T19:57:47.172Z,99717.94
2022-09-03T20:01:08.280Z,99719.16
2022-09-03T20:04:36.625Z,99721.66
2022-09-03T20:07:57.647Z,99723.66
2022-09-03T20:11:00.826Z,99714.66
2022-09-03T20:14:14.905Z,99714.97
2022-09-03T20:17:43.785Z,99727.00
2022-09-03T20:21:13.003Z,99722.50
2022-09-03T20:24:21.523Z,99728.56
2022-09-03T20:27:34.137Z,99721.28
2022-09-03T20:30:44.966Z,99722.81
2022-09-03T20:34:11.617Z,99721.06
2022-09-03T20:37:28.543Z,99721.97
2022-09-03T20:41:01.649Z,99722.44
2022-09-03T20:44:16.845Z,99721.53
2022-09-03T20:47:41.550Z,99721.06
2022-09-03T20:50:57.484Z,99725.63
2022-09-03T20:54:20.766Z,99726.78
2022-09-03T20:57:37.939Z,99730.28
2022-09-03T21:00:48.193Z,99730.97
2022-09-03T21:04:08.916Z,99740.94
2022-09-03T21:07:35.133Z,99738.22
2022-09-03T21:10:52.753Z,99730.00
2022-09-03T21:14:10.472Z,99736.59
2022-09-03T21:17:29.787Z,99745.69
2022-09-03T21:20:34.442Z,99735.19
2022-09-03T21:23:42.152Z,99734.41
2022-09-03T21:26:52.056Z,99733.31
2022-09-03T21:30:07.774Z,99739.31
2022-09-03T21:33:16.958Z,99729.06
2022-09-03T21:36:30.579Z,99730.78
2022-09-03T21:39:50.978Z,99736.22
2022-09-03T21:43:04.365Z,99722.28
2022-09-03T21:46:17.303Z,99728.34
2022-09-03T21:49:26.368Z,99721.72
2022-09-03T21:52:47.858Z,99726.34
2022-09-03T21:55:55.925Z,99723.84
2022-09-03T21:59:35.541Z,99720.19
2022-09-03T22:02:38.593Z,99724.13
2022-09-03T22:06:08.608Z,99724.16
2022-09-03T22:09:56.800Z,99724.47
2022-09-03T22:13:23.485Z,99725.63
2022-09-03T22:16:46.405Z,99717.09
2022-09-03T22:19:48.326Z,99715.09
2022-09-03T22:22:56.626Z,99718.91
2022-09-03T22:26:07.511Z,99721.06
2022-09-03T22:29:52.012Z,99712.59
2022-09-03T22:32:57.958Z,99706.00
2022-09-03T22:36:21.245Z,99708.22
2022-09-03T22:39:36.560Z,99702.75
2022-09-03T22:42:51.602Z,99699.84
2022-09-03T22:46:05.536Z,99693.44
2022-09-03T22:49:14.522Z,99698.28
2022-09-03T22:52:19.555Z,99703.75
2022-09-03T22:55:25.424Z,99697.69
2022-09-03T22:58:33.600Z,99698.09
2022-09-03T23:01:44.709Z,99704.88
2022-09-03T23:05:10.176Z,99701.63
2022-09-03T23:08:18.091Z,99705.63
2022-09-03T23:11:25.903Z,99704.03
2022-09-03T23:14:34.545Z,99703.22
2022-09-03T23:17:43.105Z,99701.66
2022-09-03T23:20:55.458Z,99713.56
2022-09-03T23:24:04.143Z,99710.59
2022-09-03T23:27:10.784Z,99719.25
2022-09-03T23:30:12.747Z,99719.47
2022-09-03T23:33:14.882Z,99723.41
2022-09-03T23:37:01.303Z,99720.53
2022-09-03T23:40:14.886Z,99714.16
2022-09-03T23:43:25.808Z,99721.91
2022-09-03T23:46:58.597Z,99720.75
2022-09-03T23:50:09.355Z,99727.16
2022-09-03T23:53:20.426Z,99728.16
2022-09-03T23:56:34.738Z,99733.72
2022-09-03T23:59:48.765Z,99742.28
